Time;durP1;ratioP1;P1;durP2;ratioP2;P2;SDS_P1;SDS_P2;PMS_P1;PMS_P2;Temp;Humidity;BMP_temperature;BMP_pressure;BME280_temperature;BME280_humidity;BME280_pressure;Samples;Min_cycle;Max_cycle;Signal;HPM_P1;HPM_P2
2022/06/08 00:02:23;;;;;;;6.65;5.30;;;;;;;14.92;75.17;100746.10;1850143;77;20862;-90
2022/06/08 00:04:52;;;;;;;6.20;5.60;;;;;;;14.91;75.09;100744.40;1849978;77;20889;-89
2022/06/08 00:07:19;;;;;;;9.18;5.60;;;;;;;14.88;74.91;100744.64;1849938;76;20893;-89
2022/06/08 00:09:47;;;;;;;8.48;5.35;;;;;;;14.86;74.91;100747.05;1850008;77;21915;-88
2022/06/08 00:12:15;;;;;;;9.80;6.03;;;;;;;14.86;74.81;100748.37;1849675;76;20912;-90
2022/06/08 00:14:43;;;;;;;6.58;5.17;;;;;;;14.83;75.02;100750.77;1849848;77;20878;-90
2022/06/08 00:17:09;;;;;;;6.42;5.83;;;;;;;14.81;75.04;100749.20;1849872;77;20927;-90
2022/06/08 00:19:36;;;;;;;6.25;5.53;;;;;;;14.78;75.00;100750.25;1849995;77;21288;-89
2022/06/08 00:22:04;;;;;;;6.60;5.10;;;;;;;14.76;75.10;100747.37;1850026;77;20901;-90
2022/06/08 00:24:32;;;;;;;7.15;6.03;;;;;;;14.76;75.24;100748.69;1849759;77;20984;-91
2022/06/08 00:27:00;;;;;;;8.28;6.08;;;;;;;14.74;75.37;100746.19;1849817;77;20922;-89
2022/06/08 00:29:27;;;;;;;6.12;5.62;;;;;;;14.73;75.40;100750.25;1849673;77;20881;-89
2022/06/08 00:31:54;;;;;;;6.87;6.10;;;;;;;14.68;75.98;100745.32;1849960;77;20920;-89
2022/06/08 00:34:21;;;;;;;7.72;6.50;;;;;;;14.68;75.98;100745.32;1849989;77;21735;-89
2022/06/08 00:36:47;;;;;;;6.58;5.97;;;;;;;14.66;75.87;100752.52;1849783;77;20897;-90
2022/06/08 00:39:14;;;;;;;8.13;5.85;;;;;;;14.63;76.02;100750.95;1849916;76;20886;-89
2022/06/08 00:41:52;;;;;;;7.12;6.40;;;;;;;14.60;76.29;100751.16;1849874;77;21347;-90
2022/06/08 00:44:24;;;;;;;6.92;6.22;;;;;;;14.53;76.86;100749.07;1850386;76;20949;-88
2022/06/08 00:46:52;;;;;;;7.55;5.90;;;;;;;14.53;76.86;100749.07;1849982;77;21755;-89
2022/06/08 00:49:40;;;;;;;7.55;6.10;;;;;;;14.53;76.83;100751.71;1849678;77;20889;-88
2022/06/08 00:52:07;;;;;;;6.33;5.67;;;;;;;14.50;76.87;100747.51;1849971;77;20874;-88
2022/06/08 00:54:39;;;;;;;5.62;5.12;;;;;;;14.47;76.52;100745.08;1843299;77;21400;-89
2022/06/08 00:57:19;;;;;;;7.78;5.28;;;;;;;14.44;76.47;100747.95;1835460;77;20867;-89
2022/06/08 00:59:51;;;;;;;8.68;5.97;;;;;;;14.41;76.16;100750.84;1835469;77;21038;-89
2022/06/08 01:02:18;;;;;;;6.65;4.97;;;;;;;14.36;76.09;100739.76;1834605;77;20871;-89
2022/06/08 01:04:45;;;;;;;6.60;4.60;;;;;;;14.36;76.09;100739.76;1836196;77;21399;-89
2022/06/08 01:07:20;;;;;;;5.20;4.70;;;;;;;14.35;75.79;100738.92;1836497;77;20922;-89
2022/06/08 01:09:48;;;;;;;11.48;5.12;;;;;;;14.34;75.67;100739.89;1835793;77;20914;-90
2022/06/08 01:12:19;;;;;;;7.17;5.12;;;;;;;14.33;75.63;100736.05;1807676;76;21189;-89
2022/06/08 01:14:49;;;;;;;7.20;5.78;;;;;;;14.31;75.62;100740.10;1836266;77;21151;-89
2022/06/08 01:17:19;;;;;;;5.87;5.30;;;;;;;14.28;75.72;100738.53;1835766;77;20887;-88
2022/06/08 01:19:48;;;;;;;6.42;5.83;;;;;;;14.25;75.80;100738.77;1835339;77;21324;-90
2022/06/08 01:22:18;;;;;;;6.05;4.70;;;;;;;14.22;75.78;100738.98;1835398;77;20855;-86
2022/06/08 01:24:49;;;;;;;8.25;5.30;;;;;;;14.17;75.73;100742.92;1835222;77;21101;-88
2022/06/08 01:27:23;;;;;;;6.75;5.70;;;;;;;14.17;75.73;100742.92;1835068;78;20890;-89
2022/06/08 01:30:14;;;;;;;6.50;5.28;;;;;;;14.14;75.68;100744.00;1835267;77;20961;-88
2022/06/08 01:32:56;;;;;;;7.15;4.87;;;;;;;14.10;75.76;100736.77;1835273;77;20977;-90
2022/06/08 01:35:55;;;;;;;7.05;5.05;;;;;;;14.10;75.76;100736.77;1833440;77;20903;-88
2022/06/08 01:38:48;;;;;;;7.20;5.37;;;;;;;14.09;75.99;100737.73;1835344;76;21141;-89
2022/06/08 01:41:49;;;;;;;5.60;5.10;;;;;;;14.07;75.92;100744.05;1835368;77;21341;-89
2022/06/08 01:44:24;;;;;;;6.90;5.58;;;;;;;14.05;75.92;100744.64;1837018;76;20831;-87
2022/06/08 01:47:14;;;;;;;6.33;5.17;;;;;;;13.99;75.79;100733.23;1831363;78;20855;-91
2022/06/08 01:49:45;;;;;;;5.33;4.60;;;;;;;13.97;76.47;100741.73;1835344;77;21419;-90
2022/06/08 01:52:48;;;;;;;7.25;5.55;;;;;;;13.97;76.47;100741.73;1835441;78;21095;-90
2022/06/08 01:55:26;;;;;;;8.15;6.17;;;;;;;13.94;76.38;100740.62;1849350;75;20882;-89
2022/06/08 01:57:58;;;;;;;6.47;5.85;;;;;;;13.91;76.58;100741.69;1861095;76;20921;-90
2022/06/08 02:00:32;;;;;;;9.55;6.53;;;;;;;13.89;76.75;100743.59;1860967;77;20860;-89
2022/06/08 02:03:20;;;;;;;6.87;5.60;;;;;;;13.89;76.78;100743.14;1860934;77;21423;-90
2022/06/08 02:06:20;;;;;;;19.60;6.37;;;;;;;13.89;76.78;100743.14;1860791;77;21178;-89
2022/06/08 02:09:05;;;;;;;7.37;6.20;;;;;;;13.89;77.00;100740.50;1860460;76;20906;-90
2022/06/08 02:11:42;;;;;;;;;;;;;;;13.88;76.94;100740.12;1863432;77;20875;-89
2022/06/08 02:14:18;;;;;;;11.05;5.08;;;;;;;13.87;77.02;100742.86;1860843;76;20075;-90
2022/06/08 02:16:55;;;;;;;7.15;5.62;;;;;;;13.85;76.99;100746.94;1860990;77;20908;-90
2022/06/08 02:19:30;;;;;;;8.95;5.97;;;;;;;13.84;77.04;100746.56;1860920;77;21385;-90
2022/06/08 02:22:34;;;;;;;9.60;6.08;;;;;;;13.84;77.11;100746.56;1823015;77;20856;-89
2022/06/08 02:25:13;;;;;;;6.22;5.65;;;;;;;13.84;77.28;100749.20;1863142;77;20938;-91
2022/06/08 02:27:49;;;;;;;6.75;6.08;;;;;;;13.83;77.54;100745.37;1863260;77;20982;-89
2022/06/08 02:30:21;;;;;;;6.45;5.87;;;;;;;13.82;77.75;100749.78;1863334;77;20973;-90
2022/06/08 02:36:00;;;;;;;7.95;6.47;;;;;;;13.85;78.15;100755.30;1857974;76;20938;-89
2022/06/08 02:38:36;;;;;;;11.83;8.13;;;;;;;13.87;78.35;100756.91;1863126;77;20965;-88
2022/06/08 02:41:04;;;;;;;12.20;9.28;;;;;;;13.91;78.01;100757.50;1863059;77;20907;-89
2022/06/08 02:43:36;;;;;;;9.80;7.80;;;;;;;13.93;78.52;100754.28;1863060;77;20879;-90
2022/06/08 02:46:34;;;;;;;10.08;7.05;;;;;;;13.93;78.52;100754.28;1863107;77;21124;-89
2022/06/08 02:49:05;;;;;;;10.45;7.30;;;;;;;13.97;78.34;100761.52;1862875;77;20887;-90
2022/06/08 02:51:34;;;;;;;7.78;6.83;;;;;;;14.00;78.37;100760.80;1832824;77;20843;-90
2022/06/08 02:54:06;;;;;;;15.05;7.42;;;;;;;14.05;78.45;100757.83;1862943;77;20907;-90
2022/06/08 02:56:58;;;;;;;15.83;7.83;;;;;;;14.05;78.45;100757.83;1833959;77;21087;-90
2022/06/08 02:59:43;;;;;;;15.65;8.73;;;;;;;14.11;78.10;100766.62;1863494;77;21181;-88
2022/06/08 03:02:34;;;;;;;10.70;7.97;;;;;;;14.16;77.83;100765.83;1863940;77;20961;-90
2022/06/08 03:05:09;;;;;;;12.88;8.95;;;;;;;14.20;78.06;100769.90;1833320;77;20907;-90
2022/06/08 03:07:45;;;;;;;12.20;9.05;;;;;;;14.30;78.21;100775.36;1862185;77;20927;-91
2022/06/08 03:10:13;;;;;;;12.28;10.05;;;;;;;14.36;78.54;100774.05;1855905;77;20883;-90
2022/06/08 03:13:04;;;;;;;9.95;8.28;;;;;;;14.36;78.54;100774.05;1862956;77;21118;-90
2022/06/08 03:15:31;;;;;;;15.90;8.88;;;;;;;14.41;78.25;100774.58;1863132;77;20867;-89
2022/06/08 03:18:00;;;;;;;13.00;8.28;;;;;;;14.48;78.29;100771.36;1863916;77;20820;-89
2022/06/08 03:20:27;;;;;;;12.68;9.28;;;;;;;14.55;78.13;100766.98;1863351;77;20938;-90
2022/06/08 03:22:54;;;;;;;16.93;9.23;;;;;;;14.61;77.99;100766.54;1863077;77;20962;-89
2022/06/08 03:25:22;;;;;;;16.00;10.18;;;;;;;14.68;77.90;100761.99;1863007;77;21160;-89
2022/06/08 03:27:51;;;;;;;15.18;9.35;;;;;;;14.76;77.90;100769.32;1861123;77;20848;-89
2022/06/08 03:30:18;;;;;;;12.53;9.25;;;;;;;14.84;77.58;100763.48;1861180;77;20948;-88
2022/06/08 03:32:45;;;;;;;13.25;10.08;;;;;;;14.92;77.98;100759.30;1860807;77;21372;-88
2022/06/08 03:35:12;;;;;;;12.68;8.73;;;;;;;15.00;78.00;100760.52;1861328;77;21396;-89
2022/06/08 03:37:41;;;;;;;15.88;9.93;;;;;;;15.19;77.35;100760.79;1861213;77;21107;-90
2022/06/08 03:40:09;;;;;;;18.05;11.40;;;;;;;15.19;77.35;100760.79;1860954;77;20840;-90
2022/06/08 03:42:35;;;;;;;14.93;10.25;;;;;;;15.28;77.85;100757.43;1861028;76;20873;-90
2022/06/08 03:45:02;;;;;;;14.68;9.65;;;;;;;15.40;77.92;100766.68;1861088;77;20942;-90
2022/06/08 03:47:33;;;;;;;10.63;9.60;;;;;;;15.50;78.01;100761.05;1860874;77;20950;-90
2022/06/08 03:50:01;;;;;;;16.70;9.35;;;;;;;15.60;78.11;100757.19;1860704;77;21242;-88
2022/06/08 03:52:31;;;;;;;13.83;8.65;;;;;;;15.73;78.17;100760.09;1860583;76;20832;-90
2022/06/08 03:55:01;;;;;;;8.83;7.95;;;;;;;15.84;78.22;100760.56;1857850;76;20810;-90
2022/06/08 03:57:29;;;;;;;17.17;8.38;;;;;;;15.98;78.31;100762.58;1849905;76;20834;-90
2022/06/08 03:59:57;;;;;;;13.28;7.45;;;;;;;16.10;78.40;100761.11;1825186;77;20897;-89
2022/06/08 04:02:24;;;;;;;16.35;8.68;;;;;;;16.25;78.58;100763.47;1849898;77;21260;-90
2022/06/08 04:04:51;;;;;;;19.50;9.60;;;;;;;16.39;78.66;100764.52;1850029;77;21453;-91
2022/06/08 04:07:17;;;;;;;20.43;10.03;;;;;;;16.55;78.66;100770.70;1850580;77;20908;-89
2022/06/08 04:09:47;;;;;;;17.65;8.38;;;;;;;16.78;78.71;100770.97;1850526;77;20869;-89
2022/06/08 04:12:14;;;;;;;14.75;8.43;;;;;;;17.21;78.46;100771.81;1850609;77;21410;-90
2022/06/08 04:14:41;;;;;;;14.63;8.45;;;;;;;17.76;77.48;100774.12;1850153;77;21053;-90
2022/06/08 04:17:10;;;;;;;13.55;8.08;;;;;;;18.37;75.82;100773.17;1825000;77;20913;-90
2022/06/08 04:19:37;;;;;;;13.85;7.50;;;;;;;19.00;73.97;100766.91;1850687;77;21000;-90
2022/06/08 04:22:04;;;;;;;11.53;7.92;;;;;;;19.65;71.79;100772.78;1849983;77;20921;-90
2022/06/08 04:24:32;;;;;;;14.28;8.85;;;;;;;20.31;69.80;100776.22;1849962;76;20969;-90
2022/06/08 04:27:00;;;;;;;13.00;8.53;;;;;;;20.98;67.81;100777.47;1850033;77;21151;-89
2022/06/08 04:29:31;;;;;;;12.40;8.73;;;;;;;21.61;65.75;100786.19;1850338;76;20893;-90
2022/06/08 04:31:58;;;;;;;13.45;7.97;;;;;;;22.20;63.50;100788.91;1851491;77;20937;-90
2022/06/08 04:34:27;;;;;;;11.73;8.38;;;;;;;22.73;61.62;100788.98;1850291;77;20882;-90
2022/06/08 04:36:54;;;;;;;17.05;8.13;;;;;;;23.24;60.00;100784.78;1849954;77;20869;-90
2022/06/08 04:39:22;;;;;;;11.93;6.85;;;;;;;23.73;58.54;100789.98;1850117;77;23742;-91
2022/06/08 04:41:56;;;;;;;15.60;7.55;;;;;;;24.16;57.29;100789.93;1849228;77;20869;-90
2022/06/08 04:44:26;;;;;;;11.57;7.42;;;;;;;24.65;56.19;100792.80;1850291;76;20834;-89
2022/06/08 04:46:53;;;;;;;14.15;7.92;;;;;;;25.11;55.00;100791.39;1850068;77;20917;-90
2022/06/08 04:49:21;;;;;;;12.98;7.45;;;;;;;25.57;53.94;100791.77;1850331;77;20917;-90
2022/06/08 04:51:48;;;;;;;12.23;7.25;;;;;;;26.02;53.02;100791.22;1850556;77;21172;-90
2022/06/08 04:54:16;;;;;;;13.32;7.25;;;;;;;26.45;51.72;100789.90;1850189;77;20882;-90
2022/06/08 04:56:45;;;;;;;10.98;7.58;;;;;;;26.84;50.85;100791.32;1837355;75;20898;-91
2022/06/08 04:59:14;;;;;;;13.00;7.58;;;;;;;27.26;49.65;100785.02;1835988;76;20922;-92
2022/06/08 05:01:43;;;;;;;14.50;8.13;;;;;;;27.66;48.51;100784.41;1835844;77;20963;-91
2022/06/08 05:04:12;;;;;;;9.73;7.78;;;;;;;28.06;47.56;100781.36;1836108;77;21140;-92
2022/06/08 05:06:39;;;;;;;13.93;8.53;;;;;;;28.40;46.88;100789.52;1835755;77;21184;-90
2022/06/08 05:09:06;;;;;;;20.52;11.10;;;;;;;28.70;46.79;100785.44;1835850;77;20863;-88
2022/06/08 05:11:36;;;;;;;18.92;12.63;;;;;;;28.91;46.33;100788.95;1835832;77;21001;-89
2022/06/08 05:14:03;;;;;;;27.90;12.65;;;;;;;29.04;46.01;100787.58;1835658;77;21344;-88
2022/06/08 05:16:34;;;;;;;22.95;11.70;;;;;;;29.15;45.56;100782.09;1836112;77;21187;-88
2022/06/08 05:19:03;;;;;;;17.45;11.75;;;;;;;29.26;45.21;100780.09;1835996;77;20890;-88
2022/06/08 05:21:31;;;;;;;17.48;12.35;;;;;;;29.34;45.14;100781.73;1835861;77;21431;-88
2022/06/08 05:23:58;;;;;;;25.37;15.38;;;;;;;29.39;44.52;100781.91;1837249;77;21305;-88
2022/06/08 05:26:26;;;;;;;18.60;14.45;;;;;;;29.42;44.57;100777.45;1835706;76;20863;-90
2022/06/08 05:28:53;;;;;;;21.93;15.35;;;;;;;29.53;44.33;100778.14;1837927;77;21100;-89
2022/06/08 05:31:20;;;;;;;30.70;17.80;;;;;;;29.70;44.17;100779.88;1837809;77;20966;-89
2022/06/08 05:33:49;;;;;;;30.70;21.07;;;;;;;29.94;43.71;100786.40;1810705;78;20969;-89
2022/06/08 05:36:17;;;;;;;36.95;23.42;;;;;;;30.18;42.82;100779.94;1837982;77;20879;-88
2022/06/08 05:38:45;;;;;;;34.95;23.98;;;;;;;30.47;42.34;100782.57;1838401;77;20922;-88
2022/06/08 05:41:11;;;;;;;39.80;27.52;;;;;;;30.70;41.55;100781.96;1837335;77;21098;-89
2022/06/08 05:43:39;;;;;;;42.53;27.87;;;;;;;30.90;40.31;100779.11;1836957;77;20950;-88
2022/06/08 05:46:06;;;;;;;44.67;26.95;;;;;;;31.02;39.88;100779.22;1836740;77;20823;-89
2022/06/08 05:48:33;;;;;;;41.33;27.80;;;;;;;31.19;39.35;100774.03;1837082;77;20863;-88
2022/06/08 05:51:02;;;;;;;36.83;26.30;;;;;;;31.43;38.84;100766.92;1836110;77;21439;-86
2022/06/08 05:53:29;;;;;;;38.20;23.40;;;;;;;31.67;37.96;100764.34;1835690;76;21209;-87
2022/06/08 05:55:58;;;;;;;33.60;22.20;;;;;;;31.90;36.76;100762.26;1841176;77;20970;-89
2022/06/08 05:58:26;;;;;;;24.77;18.07;;;;;;;32.07;35.83;100752.45;1849839;77;21418;-88
2022/06/08 06:00:52;;;;;;;34.40;20.35;;;;;;;32.18;35.29;100758.44;1849947;77;20894;-87
2022/06/08 06:03:20;;;;;;;29.07;16.65;;;;;;;32.24;34.83;100756.69;1850371;76;20936;-88
2022/06/08 06:05:46;;;;;;;25.43;16.95;;;;;;;32.23;34.96;100756.92;1852338;76;20869;-89
2022/06/08 06:11:02;;;;;;;22.60;13.65;;;;;;;32.38;33.83;100751.87;1809220;78;23284;-86
2022/06/08 06:13:38;;;;;;;20.72;14.25;;;;;;;32.29;33.47;100751.92;1792397;80;21546;-87
2022/06/08 06:16:09;;;;;;;31.77;12.97;;;;;;;32.28;33.53;100749.71;1793648;79;21834;-90
2022/06/08 06:18:37;;;;;;;27.50;15.03;;;;;;;32.33;33.21;100747.15;1781478;79;21299;-89
2022/06/08 06:21:16;;;;;;;23.25;11.03;;;;;;;32.60;32.63;100750.28;1737879;80;20908;-91
2022/06/08 06:23:58;;;;;;;17.92;10.43;;;;;;;32.85;31.78;100745.14;1768774;79;20841;-88
2022/06/08 06:26:29;;;;;;;12.73;8.50;;;;;;;33.12;31.50;100746.03;1789324;80;21003;-90
2022/06/08 06:29:17;;;;;;;20.30;9.23;;;;;;;33.31;31.16;100748.08;1795293;80;21634;-90
2022/06/08 06:32:01;;;;;;;19.82;10.43;;;;;;;33.45;30.79;100739.94;1792552;80;20872;-83
2022/06/08 06:34:29;;;;;;;13.43;9.27;;;;;;;33.65;29.36;100743.62;1746228;80;20939;-85
2022/06/08 06:36:58;;;;;;;18.87;10.38;;;;;;;33.65;29.36;100743.62;1776811;80;21474;-89
2022/06/08 06:39:29;;;;;;;17.15;12.28;;;;;;;33.91;29.27;100744.94;1786598;79;20908;-87
2022/06/08 06:42:01;;;;;;;20.08;11.90;;;;;;;34.02;28.93;100740.51;1780715;79;21549;-88
2022/06/08 06:44:29;;;;;;;19.27;12.40;;;;;;;34.09;28.93;100741.17;1767808;80;20986;-87
2022/06/08 06:47:07;;;;;;;16.05;12.18;;;;;;;34.24;29.20;100736.03;1761875;79;20955;-87
2022/06/08 06:49:45;;;;;;;19.48;12.30;;;;;;;34.36;28.58;100737.30;1779742;80;20930;-87
2022/06/08 06:52:14;;;;;;;15.00;11.83;;;;;;;34.38;28.55;100735.70;1779891;80;20923;-88
2022/06/08 06:54:41;;;;;;;16.23;11.30;;;;;;;34.41;28.17;100733.83;1767127;80;21088;-88
2022/06/08 06:57:08;;;;;;;16.15;11.97;;;;;;;34.62;27.29;100735.84;1743589;80;20974;-88
2022/06/08 06:59:38;;;;;;;14.28;11.03;;;;;;;34.85;26.62;100742.98;1788160;80;20971;-86
2022/06/08 07:02:14;;;;;;;11.78;9.48;;;;;;;35.15;26.21;100740.44;1748489;80;20888;-88
2022/06/08 07:04:41;;;;;;;11.80;7.92;;;;;;;35.42;25.41;100729.58;1781105;80;21065;-88
2022/06/08 07:07:08;;;;;;;11.28;7.33;;;;;;;35.69;24.90;100729.63;1772194;80;21062;-90
2022/06/08 07:09:36;;;;;;;10.85;6.67;;;;;;;35.88;24.17;100730.62;1782472;80;20939;-87
2022/06/08 07:12:03;;;;;;;6.97;5.45;;;;;;;36.05;23.98;100729.97;1776025;79;20999;-88
2022/06/08 07:14:34;;;;;;;12.60;5.53;;;;;;;36.20;23.16;100734.79;1771583;80;21413;-87
2022/06/08 07:17:02;;;;;;;5.92;4.80;;;;;;;36.30;23.08;100728.57;1775234;80;20808;-89
2022/06/08 07:19:31;;;;;;;5.65;4.92;;;;;;;36.43;23.08;100734.95;1779844;80;21086;-89
2022/06/08 07:21:58;;;;;;;9.98;5.80;;;;;;;36.53;23.66;100727.40;1794686;80;20948;-85
2022/06/08 07:24:30;;;;;;;8.15;4.95;;;;;;;36.67;23.26;100731.89;1788853;80;21148;-88
2022/06/08 07:26:55;;;;;;;6.95;6.05;;;;;;;36.75;23.27;100720.44;1775983;80;20982;-83
2022/06/08 07:29:23;;;;;;;12.35;5.55;;;;;;;36.90;23.22;100721.08;1786513;80;20967;-87
2022/06/08 07:31:50;;;;;;;11.45;5.17;;;;;;;36.96;23.19;100716.47;1782295;79;21277;-88
2022/06/08 07:34:17;;;;;;;6.50;5.15;;;;;;;37.06;23.11;100721.41;1786833;80;20844;-87
2022/06/08 07:36:47;;;;;;;7.17;5.08;;;;;;;37.10;22.43;100715.73;1783242;80;20974;-85
2022/06/08 07:39:15;;;;;;;11.25;4.58;;;;;;;37.06;22.20;100709.11;1768458;79;21078;-86
2022/06/08 07:41:43;;;;;;;7.58;4.62;;;;;;;36.83;21.44;100709.02;1785881;79;20915;-88
2022/06/08 07:44:10;;;;;;;7.58;4.45;;;;;;;36.76;22.15;100708.43;1761536;79;21202;-89
2022/06/08 07:46:37;;;;;;;9.98;4.28;;;;;;;36.83;22.83;100706.83;1791062;80;21057;-91
2022/06/08 07:51:53;;;;;;;3.85;3.37;;;;;;;37.08;21.38;100696.58;1765955;79;21070;-88
2022/06/08 07:54:25;;;;;;;6.75;3.35;;;;;;;37.14;20.90;100703.72;1782852;80;20978;-89
2022/06/08 07:56:53;;;;;;;9.43;4.95;;;;;;;37.22;21.43;100699.63;1773746;80;22014;-88
2022/06/08 07:59:22;;;;;;;4.92;4.42;;;;;;;37.42;20.86;100696.98;1785737;80;20915;-87
2022/06/08 08:01:49;;;;;;;6.45;4.67;;;;;;;37.60;20.57;100692.10;1793676;80;20884;-86
2022/06/08 08:04:16;;;;;;;9.10;4.97;;;;;;;37.57;19.78;100690.73;1771624;79;21102;-89
2022/06/08 08:06:43;;;;;;;7.78;5.58;;;;;;;37.58;20.40;100691.58;1761345;80;21002;-88
2022/06/08 08:09:17;;;;;;;6.75;5.80;;;;;;;37.67;19.78;100687.21;1786570;80;21277;-89
2022/06/08 08:11:42;;;;;;;8.60;6.90;;;;;;;37.77;19.74;100681.73;1789164;80;20883;-87
2022/06/08 08:14:10;;;;;;;6.80;5.30;;;;;;;37.68;18.89;100684.73;1779688;80;21032;-88
2022/06/08 08:16:37;;;;;;;11.55;5.37;;;;;;;37.63;19.55;100680.63;1760846;80;20990;-88
2022/06/08 08:19:03;;;;;;;12.47;5.80;;;;;;;37.65;19.67;100679.81;1780505;80;20911;-88
2022/06/08 08:21:32;;;;;;;14.25;7.25;;;;;;;37.78;19.73;100680.66;1776600;79;21213;-88
2022/06/08 08:23:59;;;;;;;7.62;6.30;;;;;;;37.94;19.34;100689.69;1778864;80;21049;-89
2022/06/08 08:26:29;;;;;;;11.83;5.70;;;;;;;38.00;18.98;100680.91;1785403;80;21058;-88
2022/06/08 08:28:57;;;;;;;6.67;4.80;;;;;;;38.14;18.87;100678.76;1743729;80;21535;-89
2022/06/08 08:31:24;;;;;;;6.12;5.22;;;;;;;38.23;19.35;100674.92;1761072;80;21433;-89
2022/06/08 08:33:51;;;;;;;8.13;5.37;;;;;;;38.29;19.07;100676.56;1772282;80;21433;-88
2022/06/08 08:36:19;;;;;;;6.05;4.97;;;;;;;38.35;19.15;100675.47;1765616;80;20900;-90
2022/06/08 08:38:46;;;;;;;5.20;4.53;;;;;;;38.35;18.93;100679.57;1779440;80;20907;-88
2022/06/08 08:44:05;;;;;;;6.08;5.17;;;;;;;38.45;18.84;100679.28;1787540;80;20916;-89
2022/06/08 08:46:37;;;;;;;8.80;5.12;;;;;;;38.55;19.54;100673.78;1790134;80;21222;-87
2022/06/08 08:49:20;;;;;;;12.50;6.12;;;;;;;38.59;19.65;100672.13;1770972;80;21026;-89
2022/06/08 08:52:05;;;;;;;10.10;6.35;;;;;;;38.39;18.84;100675.71;1789886;80;20962;-88
2022/06/08 08:54:36;;;;;;;9.43;6.22;;;;;;;38.28;18.31;100676.83;1765774;80;20920;-90
2022/06/08 08:57:21;;;;;;;10.05;6.83;;;;;;;38.19;18.80;100675.19;1792854;80;21015;-88
2022/06/08 08:59:51;;;;;;;9.08;6.65;;;;;;;38.16;18.99;100671.64;1793814;80;21589;-89
2022/06/08 09:05:15;;;;;;;7.08;6.37;;;;;;;38.16;19.14;100668.91;1776905;79;20987;-89
2022/06/08 09:07:42;;;;;;;12.07;6.58;;;;;;;38.18;18.51;100659.87;1780421;80;20989;-90
2022/06/08 09:10:20;;;;;;;9.93;6.95;;;;;;;38.18;18.48;100657.66;1789970;80;20923;-87
2022/06/08 09:12:50;;;;;;;10.43;6.80;;;;;;;38.16;19.07;100652.47;1792086;80;21172;-88
2022/06/08 09:15:38;;;;;;;8.18;6.53;;;;;;;38.22;18.64;100654.11;1760648;79;21341;-90
2022/06/08 09:18:06;;;;;;;9.50;6.22;;;;;;;38.24;18.62;100647.78;1792105;80;21006;-89
2022/06/08 09:20:36;;;;;;;9.43;6.25;;;;;;;38.24;18.62;100651.08;1775851;80;20935;-90
2022/06/08 09:23:25;;;;;;;12.47;7.20;;;;;;;38.25;18.72;100646.70;1779096;80;20883;-84
2022/06/08 09:26:16;;;;;;;10.10;6.00;;;;;;;38.25;18.92;100642.59;1782023;80;21227;-89
2022/06/08 09:28:43;;;;;;;7.37;5.67;;;;;;;38.20;19.51;100641.23;1779160;80;20887;-86
2022/06/08 09:31:29;;;;;;;7.15;5.75;;;;;;;38.15;19.34;100645.33;1762444;80;21396;-90
2022/06/08 09:34:25;;;;;;;6.67;5.47;;;;;;;37.90;19.23;100636.56;1760805;79;20986;-87
2022/06/08 09:37:24;;;;;;;7.10;5.30;;;;;;;37.83;18.94;100635.47;1775080;80;20943;-89
2022/06/08 09:39:48;;;;;;;6.12;5.12;;;;;;;37.82;19.47;100637.11;1775527;80;21247;-87
2022/06/08 09:42:39;;;;;;;5.83;5.33;;;;;;;37.93;19.43;100632.75;1793116;80;20892;-87
2022/06/08 09:45:27;;;;;;;8.53;4.75;;;;;;;38.01;19.02;100632.73;1794598;80;21504;-89
2022/06/08 09:51:46;;;;;;;8.73;4.93;;;;;;;37.91;18.98;100628.64;1760967;80;20934;-88
2022/06/08 09:54:28;;;;;;;7.62;5.00;;;;;;;37.61;19.70;100623.97;1792029;80;21891;-87
2022/06/08 09:57:28;;;;;;;6.78;5.42;;;;;;;37.42;19.68;100620.37;1792878;80;20971;-88
2022/06/08 10:00:27;;;;;;;7.95;4.65;;;;;;;37.24;20.14;100619.50;1758758;80;20979;-89
2022/06/08 10:03:32;;;;;;;9.90;5.83;;;;;;;37.18;20.16;100610.48;1774285;79;20950;-88
2022/06/08 10:06:14;;;;;;;10.23;4.72;;;;;;;37.13;20.93;100611.28;1794726;80;20919;-88
2022/06/08 10:09:10;;;;;;;9.80;5.00;;;;;;;37.26;20.66;100598.98;1777730;80;21227;-85
2022/06/08 10:12:04;;;;;;;8.13;5.03;;;;;;;37.29;20.38;100603.12;1753202;80;20938;-88
2022/06/08 10:14:55;;;;;;;6.53;4.67;;;;;;;37.17;19.83;100597.06;1765996;80;20911;-86
2022/06/08 10:17:39;;;;;;;5.80;4.70;;;;;;;37.10;20.15;100597.32;1769565;80;20970;-88
2022/06/08 10:20:15;;;;;;;5.30;4.70;;;;;;;36.99;20.12;100601.09;1783514;79;20888;-91
2022/06/08 10:22:48;;;;;;;6.90;4.58;;;;;;;37.01;20.34;100609.30;1767712;80;21142;-89
2022/06/08 10:25:24;;;;;;;5.87;5.00;;;;;;;37.09;19.99;100595.14;1793246;79;21492;-86
2022/06/08 10:28:02;;;;;;;7.92;4.95;;;;;;;37.20;19.67;100587.78;1770895;80;20942;-89
2022/06/08 10:30:38;;;;;;;7.83;4.90;;;;;;;37.20;20.20;100585.05;1780512;80;20947;-84
2022/06/08 10:33:22;;;;;;;7.33;5.30;;;;;;;37.34;20.30;100585.34;1790662;80;20923;-85
2022/06/08 10:35:55;;;;;;;7.42;5.40;;;;;;;37.37;19.85;100592.17;1793328;80;21308;-87
2022/06/08 10:38:26;;;;;;;6.80;4.37;;;;;;;37.31;19.47;100592.73;1791925;80;20880;-90
2022/06/08 10:44:00;;;;;;;6.28;4.62;;;;;;;37.25;20.01;100586.41;1779779;80;20904;-87
2022/06/08 10:46:32;;;;;;;8.78;5.12;;;;;;;37.26;19.53;100581.76;1760421;80;21045;-88
2022/06/08 10:48:59;;;;;;;6.08;5.17;;;;;;;37.10;19.64;100578.17;1785374;80;21239;-87
2022/06/08 10:51:35;;;;;;;6.65;5.22;;;;;;;37.04;20.43;100581.43;1791787;80;20908;-87
2022/06/08 10:56:51;;;;;;;10.58;4.53;;;;;;;37.14;20.00;100573.81;1777808;80;20899;-90
2022/06/08 10:59:26;;;;;;;8.30;4.10;;;;;;;37.03;19.73;100577.59;1784159;80;20928;-87
2022/06/08 11:02:30;;;;;;;6.83;4.20;;;;;;;37.05;19.50;100576.22;1765787;79;21265;-88
2022/06/08 11:05:19;;;;;;;8.27;4.40;;;;;;;36.93;19.08;100572.90;1776090;80;20983;-88
2022/06/08 11:08:12;;;;;;;7.62;4.50;;;;;;;36.79;20.20;100569.04;1787407;80;21401;-86
2022/06/08 11:10:51;;;;;;;5.95;4.67;;;;;;;36.80;20.05;100567.41;1784554;80;20930;-85
2022/06/08 11:13:30;;;;;;;7.08;4.55;;;;;;;36.73;20.23;100561.38;1784625;80;20918;-85
2022/06/08 11:16:22;;;;;;;6.10;4.40;;;;;;;36.59;19.81;100564.28;1766504;80;21225;-88
2022/06/08 11:18:56;;;;;;;8.25;4.90;;;;;;;36.38;20.05;100566.12;1763889;79;20947;-88
2022/06/08 11:21:41;;;;;;;7.15;4.37;;;;;;;36.17;20.42;100560.52;1767669;80;20950;-85
2022/06/08 11:24:36;;;;;;;10.53;5.20;;;;;;;35.90;20.90;100555.95;1754957;79;20971;-88
2022/06/08 11:27:14;;;;;;;7.40;4.62;;;;;;;35.62;21.20;100556.25;1776676;79;21013;-89
2022/06/08 11:29:47;;;;;;;6.53;4.67;;;;;;;35.43;20.43;100557.20;1778694;79;21090;-87
2022/06/08 11:32:34;;;;;;;6.97;4.20;;;;;;;35.22;21.29;100558.38;1784007;80;20971;-87
2022/06/08 11:35:46;;;;;;;7.35;4.10;;;;;;;34.93;20.53;100561.86;1764557;80;20999;-88
2022/06/08 11:38:44;;;;;;;7.97;5.00;;;;;;;34.57;21.30;100558.66;1717059;80;21591;-88
2022/06/08 11:41:32;;;;;;;5.53;4.60;;;;;;;34.26;21.73;100550.62;1751338;80;20923;-86
2022/06/08 11:44:03;;;;;;;10.25;4.95;;;;;;;33.99;22.31;100552.66;1763817;80;21236;-89
2022/06/08 11:46:39;;;;;;;7.60;4.28;;;;;;;33.82;23.02;100557.31;1783628;80;21978;-88
2022/06/08 11:49:26;;;;;;;5.95;4.22;;;;;;;33.57;21.81;100550.36;1782050;79;20924;-89
2022/06/08 11:51:53;;;;;;;6.28;4.55;;;;;;;33.29;22.62;100551.77;1782059;80;20938;-88
2022/06/08 11:54:26;;;;;;;6.40;4.47;;;;;;;33.06;23.40;100546.70;1777422;80;20861;-85
2022/06/08 11:57:15;;;;;;;5.23;3.83;;;;;;;32.84;23.50;100543.84;1793390;80;21069;-85
2022/06/08 11:59:44;;;;;;;5.17;3.90;;;;;;;32.52;24.00;100540.19;1792552;80;20888;-87
2022/06/08 12:02:30;;;;;;;8.68;4.47;;;;;;;32.22;24.34;100541.70;1789470;80;20840;-88
2022/06/08 12:04:57;;;;;;;4.83;3.80;;;;;;;32.08;24.67;100538.91;1777137;80;20978;-89
2022/06/08 12:07:47;;;;;;;7.22;4.42;;;;;;;32.00;25.00;100531.97;1778131;80;21640;-89
2022/06/08 12:10:21;;;;;;;5.12;3.87;;;;;;;31.93;25.38;100539.38;1747503;80;21298;-87
2022/06/08 12:12:49;;;;;;;5.67;4.42;;;;;;;31.81;25.20;100529.85;1772053;80;20995;-88
2022/06/08 12:15:43;;;;;;;7.33;4.12;;;;;;;31.73;25.57;100529.69;1779927;80;21422;-88